Time;durP1;ratioP1;P1;durP2;ratioP2;P2;SDS_P1;SDS_P2;PMS_P1;PMS_P2;Temp;Humidity;BMP_temperature;BMP_pressure;BME280_temperature;BME280_humidity;BME280_pressure;Samples;Min_cycle;Max_cycle;Signal;HPM_P1;HPM_P2
2023/05/05 00:01:07;;;;;;;6.27;5.37;;;11.10;99.90;;;-141.84;60.94;20025.22;5032980;28;20275;-53
2023/05/05 00:03:36;;;;;;;6.87;5.30;;;11.10;99.90;;;-141.84;60.92;20065.84;5032575;28;20673;-53
2023/05/05 00:06:05;;;;;;;10.23;5.30;;;11.10;99.90;;;-141.84;61.28;20017.09;5032852;28;20288;-54
2023/05/05 00:08:33;;;;;;;8.17;5.67;;;11.10;99.90;;;-141.84;61.75;20017.09;5032840;28;20213;-51
2023/05/05 00:11:01;;;;;;;5.80;5.13;;;11.00;99.90;;;-141.84;61.67;20047.56;5032676;28;20203;-54
2023/05/05 00:13:31;;;;;;;7.03;5.80;;;11.00;99.90;;;-141.84;61.64;20013.00;5032624;28;20202;-53
2023/05/05 00:15:59;;;;;;;8.57;5.80;;;10.90;99.90;;;-141.84;61.50;20037.41;5032745;28;20206;-54
2023/05/05 00:18:28;;;;;;;7.57;5.40;;;11.00;99.90;;;-141.84;62.05;19976.44;5032701;28;20205;-51
2023/05/05 00:20:56;;;;;;;5.50;5.00;;;10.90;99.90;;;-141.84;62.28;19980.50;5032536;28;20268;-54
2023/05/05 00:23:24;;;;;;;6.27;5.67;;;10.90;99.90;;;-141.84;62.35;20013.00;5032243;28;20202;-53
2023/05/05 00:25:52;;;;;;;5.77;5.17;;;10.80;99.90;;;-141.84;62.50;19996.75;5032742;28;20202;-53
2023/05/05 00:28:21;;;;;;;7.70;5.80;;;10.80;99.90;;;-141.84;62.23;19976.44;5031980;28;20233;-54
2023/05/05 00:30:50;;;;;;;6.33;5.73;;;10.70;99.90;;;-141.84;62.44;20008.94;5032846;28;20205;-51
2023/05/05 00:33:18;;;;;;;9.30;5.67;;;10.80;99.90;;;-141.84;62.42;19952.03;5032085;28;20292;-53
2023/05/05 00:35:47;;;;;;;7.23;5.37;;;10.80;99.90;;;-141.84;62.63;19976.44;5032400;28;20221;-52
2023/05/05 00:38:15;;;;;;;7.33;5.63;;;10.80;99.90;;;-141.84;63.03;19980.50;5032333;28;20210;-53
2023/05/05 00:40:43;;;;;;;6.27;5.47;;;10.70;99.90;;;-141.84;63.16;19972.38;5032258;28;20221;-54
2023/05/05 00:43:11;;;;;;;9.30;5.83;;;10.70;99.90;;;-141.84;63.23;19996.75;5031882;28;20213;-49
2023/05/05 00:45:43;;;;;;;6.23;5.53;;;10.70;99.90;;;-141.84;63.24;19964.25;5032095;28;20206;-54
2023/05/05 00:48:12;;;;;;;8.30;6.33;;;10.70;99.90;;;-141.84;63.21;19968.31;5031956;28;20190;-53
2023/05/05 00:50:43;;;;;;;7.13;6.13;;;10.70;99.90;;;-141.84;63.27;19937.81;5031976;28;20194;-51
2023/05/05 00:53:12;;;;;;;8.27;5.93;;;10.70;99.90;;;-141.84;63.85;19954.06;5031859;28;20565;-56
2023/05/05 00:55:41;;;;;;;6.40;5.77;;;10.60;99.90;;;-141.84;63.83;19974.41;5031715;28;20202;-54
2023/05/05 00:58:09;;;;;;;6.93;5.47;;;10.60;99.90;;;-141.84;63.85;19980.50;5032185;28;20206;-54
2023/05/05 01:00:37;;;;;;;6.27;5.37;;;10.60;99.90;;;-141.84;63.27;19980.50;5031715;28;20237;-53
2023/05/05 01:03:06;;;;;;;6.90;5.50;;;10.60;99.90;;;-141.84;63.69;19933.75;5031685;28;20691;-56
2023/05/05 01:05:51;;;;;;;7.60;6.20;;;10.60;99.90;;;-141.84;63.88;19939.84;5031819;28;20212;-56
2023/05/05 01:08:41;;;;;;;7.93;6.27;;;10.50;99.90;;;-141.84;63.61;19929.69;5031597;28;20732;-54
2023/05/05 01:11:17;;;;;;;7.37;6.00;;;10.50;99.90;;;-141.84;63.47;19952.03;5031863;28;20201;-53
2023/05/05 01:13:57;;;;;;;5.93;5.33;;;10.50;99.90;;;-141.84;63.82;19968.31;5031551;28;20186;-53
2023/05/05 01:16:29;;;;;;;6.90;6.10;;;10.50;99.90;;;-141.84;64.10;19966.28;5031794;28;20194;-53
2023/05/05 01:19:11;;;;;;;8.27;5.97;;;10.50;99.90;;;-141.84;64.17;19929.69;5031424;28;20236;-52
2023/05/05 01:21:46;;;;;;;8.60;6.30;;;10.40;99.90;;;-141.84;64.35;19947.97;5031755;28;20206;-53
2023/05/05 01:24:54;;;;;;;8.13;6.30;;;10.30;99.90;;;-141.84;63.90;19945.94;5031988;28;20546;-54
2023/05/05 01:27:44;;;;;;;7.63;6.47;;;10.40;99.90;;;-141.84;64.35;19927.66;5031475;28;20311;-48
2023/05/05 01:30:47;;;;;;;7.17;6.20;;;10.30;99.90;;;-141.84;63.50;19947.97;5031356;28;20197;-55
2023/05/05 01:33:25;;;;;;;7.30;5.93;;;10.30;99.90;;;-141.84;64.22;19887.00;5031524;28;20205;-54
2023/05/05 01:36:03;;;;;;;7.37;6.10;;;10.30;99.90;;;-141.84;63.81;19950.00;5031160;28;20557;-54
2023/05/05 01:38:40;;;;;;;7.23;6.30;;;10.30;99.90;;;-141.84;63.87;19919.53;5031097;28;20669;-55
2023/05/05 01:41:15;;;;;;;6.97;5.80;;;10.30;99.90;;;-141.84;64.71;19901.22;5024007;28;20207;-54
2023/05/05 01:43:48;;;;;;;7.33;6.03;;;10.30;99.90;;;-141.84;65.10;19911.41;5011977;28;20281;-52
2023/05/05 01:46:21;;;;;;;6.37;5.57;;;10.20;99.90;;;-141.84;65.21;19870.75;5011772;28;20191;-53
2023/05/05 01:48:55;;;;;;;7.70;6.40;;;10.10;99.90;;;-141.84;65.34;19878.88;5017813;28;20252;-53
2023/05/05 01:51:26;;;;;;;7.17;6.47;;;10.10;99.90;;;-141.84;65.98;19876.84;5030768;28;20596;-54
2023/05/05 01:54:00;;;;;;;7.47;6.70;;;10.10;99.90;;;-141.84;65.96;19842.28;5031488;28;20228;-55
2023/05/05 01:56:32;;;;;;;9.07;6.93;;;10.10;99.90;;;-141.84;65.87;19878.88;5031472;28;20224;-50
2023/05/05 01:59:02;;;;;;;8.10;6.60;;;10.10;99.90;;;-141.84;65.94;19876.84;5031240;28;20186;-53
2023/05/05 02:01:31;;;;;;;6.93;6.23;;;10.00;99.90;;;-141.84;65.74;19891.06;5031076;28;20612;-50
2023/05/05 02:04:05;;;;;;;8.70;6.63;;;10.10;99.90;;;-141.84;65.70;19903.25;5031077;28;20217;-50
2023/05/05 02:06:35;;;;;;;8.03;6.30;;;10.00;99.90;;;-141.84;65.39;19911.41;5031262;28;20194;-53
2023/05/05 02:09:03;;;;;;;8.83;6.80;;;10.00;99.90;;;-141.84;65.16;19864.66;5035295;28;20190;-53
2023/05/05 02:11:32;;;;;;;8.23;6.20;;;10.00;99.90;;;-141.84;65.24;19897.16;5035093;28;20202;-54
2023/05/05 02:14:02;;;;;;;10.23;6.90;;;10.10;99.90;;;-141.84;65.08;19891.06;5035102;28;20297;-56
2023/05/05 02:16:31;;;;;;;9.30;7.17;;;10.00;99.90;;;-141.84;64.86;19884.97;5034874;28;20273;-54
2023/05/05 02:19:04;;;;;;;7.30;6.50;;;10.00;99.90;;;-141.84;64.55;19887.00;5034694;28;20202;-54
2023/05/05 02:21:33;;;;;;;8.87;6.73;;;10.00;99.90;;;-141.84;64.91;19891.06;5034346;28;20581;-54
2023/05/05 02:24:02;;;;;;;6.83;6.07;;;10.00;99.90;;;-141.84;65.07;19840.25;5034697;28;20209;-55
2023/05/05 02:26:35;;;;;;;8.90;6.47;;;10.00;99.90;;;-141.84;65.61;19836.19;5034345;28;20242;-53
2023/05/05 02:29:07;;;;;;;9.43;7.00;;;9.90;99.90;;;-141.84;65.01;19826.03;5034578;28;20206;-53
2023/05/05 02:31:43;;;;;;;7.60;6.73;;;9.90;99.90;;;-141.84;64.88;19891.06;5034590;28;20187;-54
2023/05/05 02:34:21;;;;;;;10.53;6.67;;;9.90;99.90;;;-141.84;65.41;19864.66;5034821;28;20451;-54
2023/05/05 02:36:56;;;;;;;8.07;6.20;;;9.90;99.90;;;-141.84;65.71;19850.41;5034550;28;20205;-52
2023/05/05 02:39:31;;;;;;;7.73;6.37;;;9.90;99.90;;;-141.84;65.25;19866.69;5034721;28;20190;-54
2023/05/05 02:42:03;;;;;;;7.43;6.13;;;9.80;99.90;;;-141.84;64.92;19876.84;5034075;28;20573;-54
2023/05/05 02:44:35;;;;;;;8.00;6.33;;;9.90;99.90;;;-141.84;65.23;19840.25;5034250;28;20208;-54
2023/05/05 02:47:04;;;;;;;7.00;6.30;;;9.80;99.90;;;-141.84;65.55;19832.13;5034493;28;20190;-53
2023/05/05 02:49:33;;;;;;;8.93;6.40;;;9.80;99.90;;;-141.84;65.35;19850.41;5034195;28;20198;-55
2023/05/05 02:52:02;;;;;;;7.33;6.40;;;9.80;99.90;;;-141.84;65.35;19854.50;5034058;28;20580;-54
2023/05/05 02:54:32;;;;;;;9.07;6.47;;;9.80;99.90;;;-141.84;65.79;19848.38;5034199;28;20206;-53
2023/05/05 02:57:01;;;;;;;9.47;6.50;;;9.80;99.90;;;-141.84;65.01;19874.81;5033903;28;20198;-55
2023/05/05 02:59:40;;;;;;;7.67;6.50;;;9.80;99.90;;;-141.84;65.66;19840.25;5033714;28;20210;-54
2023/05/05 03:02:20;;;;;;;9.50;6.20;;;9.80;99.90;;;-141.84;65.63;19876.84;5033766;28;20214;-56
2023/05/05 03:05:00;;;;;;;7.93;6.83;;;9.80;99.90;;;-141.84;65.83;19838.22;5022499;28;20657;-56
2023/05/05 03:07:38;;;;;;;8.87;7.07;;;9.80;99.90;;;-141.84;65.88;19834.16;5034042;28;20634;-53
2023/05/05 03:10:11;;;;;;;7.20;6.17;;;9.70;99.90;;;-141.84;66.23;19836.19;5034116;28;20189;-54
2023/05/05 03:12:48;;;;;;;9.10;7.20;;;9.70;99.90;;;-141.84;66.41;19817.91;5033917;28;20179;-54
2023/05/05 03:15:19;;;;;;;7.83;6.93;;;9.60;99.90;;;-141.84;66.73;19813.84;5034107;28;20186;-54
2023/05/05 03:17:50;;;;;;;7.10;6.40;;;9.60;99.90;;;-141.84;66.08;19809.78;5033220;28;20190;-55
2023/05/05 03:20:21;;;;;;;9.57;6.67;;;9.60;99.90;;;-141.84;66.33;19795.53;5033759;28;20293;-56
2023/05/05 03:22:50;;;;;;;8.40;6.77;;;9.60;99.90;;;-141.84;66.71;19803.69;5033712;28;20211;-55
2023/05/05 03:25:19;;;;;;;7.63;6.83;;;9.50;99.90;;;-141.84;67.33;19811.81;5033565;28;20704;-56
2023/05/05 03:27:47;;;;;;;8.40;6.47;;;9.50;99.90;;;-141.84;66.89;19809.78;5033397;28;20280;-55
2023/05/05 03:30:15;;;;;;;7.60;6.40;;;9.50;99.90;;;-141.84;66.83;19826.03;5033817;28;20209;-56
2023/05/05 03:32:43;;;;;;;7.40;6.23;;;9.50;99.90;;;-141.84;67.56;19765.06;5033178;28;20218;-56
2023/05/05 03:35:11;;;;;;;7.50;6.30;;;9.50;99.90;;;-141.84;68.09;19797.59;5033339;28;20210;-55
2023/05/05 03:37:41;;;;;;;12.27;7.27;;;9.40;99.90;;;-141.84;67.87;19789.44;5033372;28;20206;-55
2023/05/05 03:40:11;;;;;;;8.33;6.87;;;9.40;99.90;;;-141.84;67.71;19809.78;5033334;28;20661;-55
2023/05/05 03:42:39;;;;;;;9.27;7.07;;;9.40;99.90;;;-141.84;67.34;19824.00;5033019;28;20237;-55
2023/05/05 03:45:09;;;;;;;8.03;6.20;;;9.40;99.90;;;-141.84;67.68;19793.50;5033313;28;20212;-56
2023/05/05 03:47:37;;;;;;;7.10;6.40;;;9.40;99.90;;;-141.84;67.33;19809.78;5032987;28;20209;-53
2023/05/05 03:50:07;;;;;;;9.33;7.20;;;9.40;99.90;;;-141.84;67.19;19801.66;5033485;28;20202;-56
2023/05/05 03:52:35;;;;;;;10.30;7.20;;;9.40;99.90;;;-141.84;67.12;19803.69;5033183;28;20198;-52
2023/05/05 03:55:06;;;;;;;7.90;6.63;;;9.40;99.90;;;-141.84;67.14;19817.91;5033139;28;20206;-56
2023/05/05 03:57:34;;;;;;;9.60;6.77;;;9.40;99.90;;;-141.84;67.36;19817.91;5033046;28;20209;-54
2023/05/05 04:00:03;;;;;;;7.33;6.53;;;9.40;99.90;;;-141.84;67.27;19797.59;5033165;28;20209;-55
2023/05/05 04:02:31;;;;;;;9.30;6.70;;;9.40;99.90;;;-141.84;66.51;19817.91;5032757;28;20225;-52
2023/05/05 04:05:00;;;;;;;7.47;6.73;;;9.50;99.90;;;-141.84;66.17;19821.97;5033132;28;20214;-54
2023/05/05 04:07:28;;;;;;;8.57;7.00;;;9.50;99.90;;;-141.84;66.00;19838.22;5033054;28;20209;-52
2023/05/05 04:09:56;;;;;;;9.50;7.17;;;9.50;99.90;;;-141.84;65.95;19817.91;5033098;28;20212;-56
2023/05/05 04:12:25;;;;;;;9.00;6.93;;;9.60;99.90;;;-141.84;65.19;19858.56;5033497;28;20194;-50
2023/05/05 04:14:53;;;;;;;8.33;6.47;;;9.60;99.90;;;-141.84;63.69;19878.88;5033247;28;20213;-57
2023/05/05 04:17:22;;;;;;;9.37;6.87;;;9.80;99.90;;;-141.84;63.43;19858.56;5033553;28;20198;-54
2023/05/05 04:19:50;;;;;;;7.23;6.37;;;9.80;99.90;;;-141.84;63.42;19836.19;5033109;28;20206;-55
2023/05/05 04:22:18;;;;;;;8.93;6.77;;;9.80;99.90;;;-141.84;63.71;19854.50;5032969;28;20561;-54
2023/05/05 04:24:46;;;;;;;9.47;6.90;;;9.80;99.90;;;-141.84;64.12;19866.69;5033210;28;20206;-55
2023/05/05 04:27:14;;;;;;;9.67;7.13;;;9.70;99.90;;;-141.84;63.82;19815.88;5032820;28;20601;-52
2023/05/05 04:29:44;;;;;;;10.33;7.30;;;9.70;99.90;;;-141.84;63.54;19842.28;5032248;28;20229;-54
2023/05/05 04:32:12;;;;;;;7.10;6.33;;;9.70;99.90;;;-141.84;63.20;19884.97;5032427;28;20248;-57
2023/05/05 04:34:40;;;;;;;8.73;6.60;;;9.80;99.90;;;-141.84;63.28;19838.22;5032136;28;20687;-55
2023/05/05 04:37:09;;;;;;;7.70;6.77;;;9.80;99.90;;;-141.84;63.36;19895.13;5032360;28;20597;-53
2023/05/05 04:39:37;;;;;;;9.27;6.80;;;9.80;99.90;;;-141.84;63.70;19852.44;5032462;28;20745;-53
2023/05/05 04:42:05;;;;;;;7.67;6.60;;;9.80;99.90;;;-141.84;63.43;19848.38;5031849;28;20872;-53
2023/05/05 04:44:34;;;;;;;9.33;6.40;;;9.80;99.90;;;-141.84;62.96;19830.09;5032200;28;20296;-54
2023/05/05 04:47:03;;;;;;;7.97;6.60;;;9.90;99.90;;;-141.84;61.64;19923.59;5032241;28;20202;-54
2023/05/05 04:49:32;;;;;;;11.50;7.23;;;10.00;99.90;;;-141.84;61.73;19927.66;5031597;28;20206;-58
2023/05/05 04:52:00;;;;;;;9.07;7.07;;;10.10;99.90;;;-141.84;61.68;19913.44;5031650;28;20214;-52
2023/05/05 04:54:28;;;;;;;8.30;6.67;;;10.30;99.90;;;-141.84;59.55;20000.81;5032253;28;20215;-56
2023/05/05 04:56:58;;;;;;;7.37;6.47;;;10.60;99.90;;;-141.84;57.81;20047.56;5031937;28;20230;-54
2023/05/05 04:59:26;;;;;;;7.03;6.33;;;11.10;99.90;;;-141.84;55.46;20204.06;5032061;28;20202;-53
2023/05/05 05:01:54;;;;;;;9.70;6.90;;;11.60;99.90;;;-141.84;52.66;20326.03;5032250;28;20209;-54
2023/05/05 05:04:24;;;;;;;6.57;5.80;;;12.40;99.90;;;-141.84;48.03;20557.75;5031653;28;20694;-55
2023/05/05 05:06:52;;;;;;;7.70;5.97;;;13.40;99.90;;;-141.84;46.53;20635.00;5031911;28;20212;-53
2023/05/05 05:09:22;;;;;;;8.25;6.70;;;14.10;99.90;;;-141.84;45.31;20718.34;5031720;28;20202;-55
2023/05/05 05:11:50;;;;;;;10.40;5.80;;;14.60;99.90;;;-141.84;45.29;20724.44;5031511;28;20205;-56
2023/05/05 05:14:18;;;;;;;9.73;6.35;;;14.70;99.90;;;-141.84;46.05;20632.97;5031708;28;20202;-54
2023/05/05 05:16:49;;;;;;;7.18;5.85;;;14.50;99.90;;;-141.84;47.69;20517.09;5031071;28;20682;-50
2023/05/05 05:19:18;;;;;;;8.53;5.90;;;14.30;99.90;;;-141.84;49.28;20435.78;5031338;28;20277;-53
2023/05/05 05:21:47;;;;;;;7.43;5.87;;;14.10;99.90;;;-141.84;49.73;20407.34;5031535;28;20616;-54
2023/05/05 05:24:15;;;;;;;8.33;6.47;;;13.90;99.90;;;-141.84;50.15;20356.50;5031743;28;20229;-53
2023/05/05 05:26:43;;;;;;;8.77;6.17;;;13.70;99.90;;;-141.84;50.55;20370.75;5031395;28;20245;-56
2023/05/05 05:29:11;;;;;;;9.30;5.87;;;13.60;99.90;;;-141.84;50.57;20389.03;5031626;28;20236;-55
2023/05/05 05:31:40;;;;;;;7.67;5.73;;;13.60;99.90;;;-141.84;50.72;20372.78;5031638;28;20212;-57
2023/05/05 05:34:08;;;;;;;10.27;6.10;;;13.50;99.90;;;-141.84;50.78;20334.16;5031459;28;20600;-55
2023/05/05 05:36:39;;;;;;;9.27;5.93;;;13.60;99.90;;;-141.84;50.40;20368.72;5031646;28;20240;-57
2023/05/05 05:39:08;;;;;;;10.57;6.43;;;13.70;99.90;;;-141.84;49.97;20409.38;5031220;28;20206;-55
2023/05/05 05:41:37;;;;;;;7.67;6.07;;;13.80;99.90;;;-141.84;50.26;20391.06;5033882;28;20205;-55
2023/05/05 05:44:05;;;;;;;8.53;5.70;;;13.90;99.90;;;-141.84;49.88;20435.78;5035552;28;20222;-55
2023/05/05 05:46:33;;;;;;;10.07;5.60;;;13.90;99.90;;;-141.84;50.08;20421.56;5035521;28;20216;-55
2023/05/05 05:49:01;;;;;;;7.70;5.93;;;14.10;99.90;;;-141.84;49.91;20421.56;5034495;28;20638;-55
2023/05/05 05:51:30;;;;;;;8.33;5.43;;;14.20;99.90;;;-141.84;49.36;20496.78;5034946;28;20772;-57
2023/05/05 05:53:58;;;;;;;8.17;5.70;;;14.30;99.90;;;-141.84;49.14;20476.44;5035062;28;20198;-52
2023/05/05 05:56:27;;;;;;;6.60;5.80;;;14.50;99.90;;;-141.84;48.86;20488.63;5035053;28;20208;-50
2023/05/05 05:58:56;;;;;;;8.23;6.00;;;14.50;99.90;;;-141.84;48.64;20513.03;5034825;28;20198;-53
2023/05/05 06:01:24;;;;;;;8.37;5.53;;;14.70;99.90;;;-141.84;48.09;20549.63;5034942;28;20213;-56
2023/05/05 06:03:52;;;;;;;5.93;5.33;;;14.80;99.90;;;-141.84;48.12;20557.75;5034926;28;20364;-53
2023/05/05 06:06:21;;;;;;;6.60;5.40;;;14.90;99.90;;;-141.84;46.98;20590.28;5035307;28;20218;-56
2023/05/05 06:08:49;;;;;;;5.82;5.20;;;15.00;99.90;;;-141.84;46.97;20567.91;5034719;28;20670;-53
2023/05/05 06:11:17;;;;;;;6.27;5.33;;;15.10;99.90;;;-141.84;47.19;20580.13;5035054;28;20195;-55
2023/05/05 06:13:46;;;;;;;6.80;5.10;;;15.10;99.90;;;-141.84;47.14;20612.63;5034997;28;20198;-56
2023/05/05 06:16:14;;;;;;;7.37;5.27;;;15.10;99.90;;;-141.84;47.41;20600.44;5034920;28;20213;-55
2023/05/05 06:18:42;;;;;;;5.40;4.90;;;15.20;99.90;;;-141.84;47.34;20608.56;5034787;28;20214;-53
2023/05/05 06:21:12;;;;;;;6.38;4.75;;;15.30;99.90;;;-141.84;47.66;20630.94;5034750;28;20213;-53
2023/05/05 06:23:41;;;;;;;6.35;5.10;;;15.30;99.90;;;-141.84;46.66;20590.28;5034729;28;20232;-54
2023/05/05 06:26:09;;;;;;;6.78;4.60;;;15.30;99.90;;;-141.84;47.38;20608.56;5034370;28;20202;-54
2023/05/05 06:28:37;;;;;;;5.63;4.90;;;15.30;99.90;;;-141.84;46.51;20606.53;5034856;28;20193;-55
2023/05/05 06:31:07;;;;;;;6.50;4.68;;;15.30;99.90;;;-141.84;46.91;20598.41;5034574;28;20213;-55
2023/05/05 06:33:35;;;;;;;5.28;4.72;;;15.40;99.90;;;-141.84;47.70;20649.22;5034568;28;20206;-52
2023/05/05 06:36:04;;;;;;;5.00;4.47;;;15.50;99.90;;;-141.84;46.86;20681.75;5034521;28;20206;-55
2023/05/05 06:38:32;;;;;;;6.60;4.70;;;15.60;99.90;;;-141.84;46.98;20708.19;5034650;28;20229;-55
2023/05/05 06:41:00;;;;;;;6.30;4.63;;;15.70;99.90;;;-141.84;46.32;20698.00;5034219;28;20225;-55
2023/05/05 06:43:29;;;;;;;6.10;4.70;;;15.80;99.90;;;-141.84;45.64;20673.63;5033398;28;20276;-56
2023/05/05 06:45:57;;;;;;;6.40;4.28;;;15.80;99.90;;;-141.84;46.04;20653.28;5034190;28;20206;-55
2023/05/05 06:48:26;;;;;;;5.15;4.43;;;15.80;99.90;;;-141.84;46.09;20687.84;5033865;28;20693;-54
2023/05/05 06:50:56;;;;;;;7.68;4.72;;;15.90;99.90;;;-141.84;45.70;20734.59;5033837;28;20202;-56
2023/05/05 06:53:24;;;;;;;5.90;4.80;;;15.90;99.90;;;-141.84;45.91;20738.66;5033076;28;20597;-55
2023/05/05 06:55:52;;;;;;;8.63;4.90;;;16.00;99.90;;;-141.84;46.00;20730.53;5033768;28;20213;-54
2023/05/05 06:58:21;;;;;;;5.65;4.40;;;16.00;99.90;;;-141.84;45.77;20736.63;5033947;28;20252;-55
2023/05/05 07:00:49;;;;;;;7.95;5.35;;;16.00;99.90;;;-141.84;45.76;20781.38;5033849;28;20203;-56
2023/05/05 07:03:17;;;;;;;7.45;4.80;;;16.10;99.90;;;-141.84;44.90;20750.88;5033713;28;20206;-55
2023/05/05 07:05:46;;;;;;;5.18;4.50;;;16.10;99.90;;;-141.84;45.21;20740.69;5033883;28;20204;-55
2023/05/05 07:08:15;;;;;;;5.47;4.53;;;16.00;99.90;;;-141.84;45.31;20716.31;5033996;28;20202;-56
2023/05/05 07:10:43;;;;;;;7.63;4.60;;;16.00;99.90;;;-141.84;45.36;20769.16;5033716;28;20232;-54
2023/05/05 07:13:11;;;;;;;5.63;4.65;;;16.00;99.90;;;-141.84;45.41;20732.56;5033822;28;20275;-55
2023/05/05 07:15:45;;;;;;;4.60;4.10;;;16.00;99.90;;;-141.84;44.94;20761.03;5033704;28;20202;-56
2023/05/05 07:18:13;;;;;;;5.68;4.03;;;16.00;99.90;;;-141.84;45.25;20722.41;5033475;28;20201;-53
2023/05/05 07:20:41;;;;;;;4.68;4.00;;;16.00;99.90;;;-141.84;44.71;20775.25;5033817;28;20210;-52
2023/05/05 07:23:11;;;;;;;5.63;4.13;;;16.00;99.90;;;-141.84;44.59;20740.69;5033831;28;20562;-54
2023/05/05 07:25:39;;;;;;;6.32;4.30;;;16.00;99.90;;;-141.84;44.53;20761.03;5033395;28;20588;-54
2023/05/05 07:28:07;;;;;;;5.65;4.10;;;16.10;99.90;;;-141.84;44.90;20756.97;5033389;28;20234;-54
2023/05/05 07:30:35;;;;;;;4.88;3.83;;;16.10;99.90;;;-141.84;44.53;20805.75;5033664;28;20297;-56
2023/05/05 07:33:04;;;;;;;4.40;3.70;;;16.20;99.90;;;-141.84;44.59;20822.03;5033694;28;20249;-55
2023/05/05 07:35:32;;;;;;;7.88;4.20;;;16.30;99.90;;;-141.84;44.33;20840.31;5033404;28;20194;-52
2023/05/05 07:38:00;;;;;;;4.93;3.90;;;16.50;99.90;;;-141.84;43.85;20860.66;5033299;28;20624;-55
2023/05/05 07:40:29;;;;;;;6.20;4.20;;;16.60;99.90;;;-141.84;43.85;20905.38;5028924;28;20554;-49
2023/05/05 07:42:57;;;;;;;5.85;3.70;;;16.80;99.90;;;-141.84;43.16;20939.94;5029745;28;20262;-55
2023/05/05 07:45:27;;;;;;;4.00;3.63;;;17.10;99.90;;;-141.84;42.73;21004.97;5032767;28;20230;-53
2023/05/05 07:47:55;;;;;;;4.07;3.67;;;17.30;99.90;;;-141.84;42.71;21025.31;5033193;28;20210;-53
2023/05/05 07:50:23;;;;;;;4.13;3.72;;;17.40;99.90;;;-141.84;42.61;20996.84;5032420;28;20214;-53
2023/05/05 07:52:51;;;;;;;5.72;3.85;;;17.40;99.90;;;-141.84;42.93;20992.78;5032699;28;20204;-53
2023/05/05 07:55:38;;;;;;;5.38;3.90;;;17.50;99.90;;;-141.84;42.25;20972.47;5032905;28;20189;-53
2023/05/05 07:58:07;;;;;;;7.18;3.83;;;17.50;99.90;;;-141.84;41.95;21021.25;5032822;28;20210;-56
2023/05/05 08:00:35;;;;;;;7.18;3.50;;;17.60;99.90;;;-141.84;41.15;21043.59;5032756;28;20580;-53
2023/05/05 08:03:03;;;;;;;3.85;3.50;;;17.60;99.90;;;-141.84;41.51;21070.03;5032216;28;20694;-53
2023/05/05 08:05:32;;;;;;;6.50;3.47;;;17.70;99.90;;;-141.84;41.99;21017.19;5031439;28;20226;-52
2023/05/05 08:08:00;;;;;;;5.93;3.97;;;17.70;99.90;;;-141.84;41.52;21063.94;5032807;28;20210;-53
2023/05/05 08:10:28;;;;;;;5.22;3.45;;;17.70;99.90;;;-141.84;41.20;21088.34;5032118;28;20735;-53
2023/05/05 08:12:57;;;;;;;5.95;3.53;;;17.80;99.90;;;-141.84;40.62;21116.78;5032085;28;20595;-52
2023/05/05 08:15:25;;;;;;;4.43;4.03;;;17.90;99.90;;;-141.84;39.94;21145.25;5031855;28;20241;-52
2023/05/05 08:17:54;;;;;;;6.00;3.63;;;18.00;99.90;;;-141.84;39.52;21141.19;5032062;28;20201;-55
2023/05/05 08:20:27;;;;;;;4.22;3.83;;;18.00;99.90;;;-141.84;40.07;21110.69;5031878;28;20206;-56
2023/05/05 08:22:55;;;;;;;4.18;3.78;;;18.10;99.90;;;-141.84;40.02;21108.66;5032204;28;20485;-50
2023/05/05 08:25:25;;;;;;;4.00;3.47;;;18.10;99.90;;;-141.84;40.21;21155.44;5032167;28;20222;-55
2023/05/05 08:27:54;;;;;;;5.47;3.30;;;18.10;99.90;;;-141.84;40.10;21131.03;5031748;28;20759;-57
2023/05/05 08:30:23;;;;;;;5.03;3.75;;;18.10;99.90;;;-141.84;39.30;21187.97;5032259;28;20198;-54
2023/05/05 08:32:51;;;;;;;4.65;3.35;;;18.20;99.90;;;-141.84;39.63;21155.44;5031802;28;20238;-55
2023/05/05 08:35:20;;;;;;;5.85;3.97;;;18.30;99.90;;;-141.84;39.40;21179.81;5031972;28;20256;-57
2023/05/05 08:37:48;;;;;;;4.75;3.92;;;18.40;99.90;;;-141.84;39.47;21173.72;5031820;28;20210;-57
2023/05/05 08:40:16;;;;;;;4.85;3.33;;;18.40;99.90;;;-141.84;39.23;21234.72;5031516;28;20198;-57
2023/05/05 08:42:45;;;;;;;4.25;3.85;;;18.60;99.90;;;-141.84;39.13;21267.25;5031832;28;20431;-54
2023/05/05 08:45:13;;;;;;;5.45;3.85;;;18.70;99.90;;;-141.84;39.23;21293.69;5031860;28;20271;-57
2023/05/05 08:47:43;;;;;;;5.05;3.67;;;18.80;99.90;;;-141.84;39.14;21362.81;5031739;28;20202;-54
2023/05/05 08:50:11;;;;;;;6.00;3.88;;;19.00;99.90;;;-141.84;38.15;21346.53;5031456;28;20209;-52
2023/05/05 08:52:42;;;;;;;6.78;3.60;;;19.00;99.90;;;-141.84;38.59;21366.88;5031458;28;20202;-55
2023/05/05 08:55:25;;;;;;;4.68;4.00;;;19.10;99.90;;;-141.84;38.87;21287.56;5031539;28;20650;-55
2023/05/05 08:57:56;;;;;;;5.00;3.30;;;19.10;99.90;;;-141.84;38.85;21299.78;5031719;28;20189;-55
2023/05/05 09:00:26;;;;;;;4.75;3.90;;;19.00;99.90;;;-141.84;39.40;21295.72;5031680;28;20190;-54
2023/05/05 09:02:58;;;;;;;4.03;3.63;;;19.00;99.90;;;-141.84;38.41;21358.75;5031361;28;20205;-52
2023/05/05 09:05:27;;;;;;;6.55;3.70;;;19.10;99.90;;;-141.84;38.14;21364.84;5031198;28;20386;-54
2023/05/05 09:07:55;;;;;;;4.18;3.78;;;19.20;99.90;;;-141.84;38.27;21440.06;5031444;28;20206;-51
2023/05/05 09:10:26;;;;;;;4.03;3.25;;;19.40;99.90;;;-141.84;37.59;21527.50;5031626;28;20622;-52
2023/05/05 09:12:57;;;;;;;7.28;3.85;;;19.70;99.90;;;-141.84;37.13;21574.25;5031059;28;20289;-52
2023/05/05 09:15:27;;;;;;;5.80;3.42;;;20.00;99.90;;;-141.84;36.58;21655.59;5030959;28;20716;-55
2023/05/05 09:17:57;;;;;;;4.75;3.25;;;20.30;99.90;;;-141.84;36.39;21631.19;5031248;28;20305;-53
2023/05/05 09:20:34;;;;;;;4.55;3.60;;;20.40;99.90;;;-141.84;35.97;21745.06;5031305;28;20214;-54
2023/05/05 09:23:09;;;;;;;5.43;3.83;;;20.60;99.90;;;-141.84;36.06;21708.47;5031275;28;20240;-55
2023/05/05 09:25:38;;;;;;;6.82;3.97;;;20.60;99.90;;;-141.84;35.71;21696.25;5028924;28;20431;-53
2023/05/05 09:28:11;;;;;;;6.93;3.70;;;20.70;99.90;;;-141.84;35.13;21732.84;5027409;28;20226;-54
2023/05/05 09:30:42;;;;;;;6.63;4.60;;;20.80;99.90;;;-141.84;35.33;21677.97;5030077;28;20571;-54
2023/05/05 09:33:12;;;;;;;5.50;3.30;;;20.80;99.90;;;-141.84;35.77;21669.81;5029527;28;20234;-57
2023/05/05 09:35:52;;;;;;;3.60;3.30;;;20.80;99.90;;;-141.84;33.99;21712.53;5029764;28;20202;-55
2023/05/05 09:38:22;;;;;;;6.00;3.60;;;20.80;99.90;;;-141.84;35.62;21734.88;5029190;28;20229;-53
2023/05/05 09:40:52;;;;;;;4.20;3.63;;;20.90;99.90;;;-141.84;35.51;21793.84;5029307;28;20197;-54
2023/05/05 09:43:23;;;;;;;5.10;3.40;;;21.00;99.90;;;-141.84;35.72;21738.97;5028047;28;20198;-54
2023/05/05 09:45:51;;;;;;;3.95;3.55;;;21.00;99.90;;;-141.84;35.75;21765.38;5029814;28;20262;-56
2023/05/05 09:48:29;;;;;;;4.07;3.35;;;21.00;99.90;;;-141.84;35.43;21783.69;5029240;28;20658;-55
2023/05/05 09:50:59;;;;;;;6.57;3.65;;;21.10;99.90;;;-141.84;35.89;21791.81;5029382;28;20198;-56
2023/05/05 09:53:41;;;;;;;4.65;3.35;;;21.10;99.90;;;-141.84;35.19;21741.00;5029709;28;20198;-57
2023/05/05 09:56:09;;;;;;;3.55;3.25;;;21.10;99.90;;;-141.84;34.29;21824.34;5029352;28;20255;-55
2023/05/05 09:58:37;;;;;;;4.25;3.40;;;21.20;99.90;;;-141.84;34.12;21806.06;5029021;28;20662;-57
2023/05/05 10:01:06;;;;;;;3.50;3.03;;;21.20;99.90;;;-141.84;33.74;21856.91;5030364;28;20220;-52
2023/05/05 10:03:51;;;;;;;3.53;3.00;;;21.40;99.90;;;-141.84;33.84;21893.50;5029421;28;20238;-54
2023/05/05 10:06:20;;;;;;;4.22;3.00;;;21.50;99.90;;;-141.84;33.59;21885.38;5029592;28;20256;-55
2023/05/05 10:09:01;;;;;;;3.63;2.90;;;21.60;99.90;;;-141.84;33.09;21897.56;5029530;28;20209;-50
2023/05/05 10:11:30;;;;;;;7.55;3.22;;;21.60;99.90;;;-141.84;32.18;21940.25;5028750;28;20678;-53
2023/05/05 10:13:58;;;;;;;2.95;2.45;;;21.70;99.90;;;-141.84;31.87;22021.59;5029827;28;20202;-56
2023/05/05 10:16:29;;;;;;;3.70;3.10;;;21.90;99.90;;;-141.84;31.54;22066.34;5029310;28;20206;-56
2023/05/05 10:19:03;;;;;;;6.30;3.10;;;22.00;99.90;;;-141.84;31.71;22019.56;5022483;28;20198;-54
2023/05/05 10:21:38;;;;;;;5.15;2.53;;;22.00;99.90;;;-141.84;30.44;22031.78;5030403;28;20225;-54